Country
Station

 

Weather  for  Savannah, Savannah International Airport  -  United States    United States

  
34 °C (93 °F)
    
 
 

Current METAR for Savannah, Savannah International Airport is :

KSAV 201953Z 21012KT 10SM SCT050 BKN065 BKN075 34/22 A2984 RMK AO2 SLP104 CB DSNT S T03440217

 

This is a report for Savannah, Savannah International Airport - United States.
 
The report was made 30 minutes ago, at 19:53 UTC .
The wind was blowing at a speed of 6.2 meters per second (13.8 miles per hour) from south/southwest (210°).
 
The temperature was 34 °C (93 °F), with a dew-point at 22 °C (72 °F).
The temperature felt like 38 °C (100 °F).
 
The atmospheric pressure was 1011 hPa (29.84 inHg).
The relative humidity was 49.7%.
 
There were scattered clouds at a height of 1524 meters (5000 feet), broken clouds at a height of 1981 meters (6500 feet) and broken clouds at a height of 2286 meters (7500 feet).
 
The overall visibility was 16.1 kilometers (10.0 miles).
 

 
 
 
 

Country :   A   B   C   D   E   F   G   H   I   J   K   L   M   N   O   P   Q   R   S   T   U   V   W   Y   Z

 

Site Info  |  Disclaimer  |  Credits  |  Privacy
Contact us  |  Add to favorites
© 2013-2019 METARs - All rights reserved